Time;durP1;ratioP1;P1;durP2;ratioP2;P2;SDS_P1;SDS_P2;PMS_P1;PMS_P2;Temp;Humidity;BMP_temperature;BMP_pressure;BME280_temperature;BME280_humidity;BME280_pressure;Samples;Min_cycle;Max_cycle;Signal;HPM_P1;HPM_P2
2021/08/20 00:01:18;;;;;;;3.20;1.52;;;16.00;77.80;;;19.50;61.48;101431.38;3188620;30;129862;-74
2021/08/20 00:04:25;;;;;;;8.93;1.52;;;16.00;77.80;;;19.51;61.57;101432.97;3189072;38;129939;-74
2021/08/20 00:07:31;;;;;;;1.23;1.13;;;16.00;77.80;;;19.44;61.56;101431.94;3189777;38;130797;-74
2021/08/20 00:10:39;;;;;;;17.30;2.60;;;16.00;77.80;;;19.51;61.23;101432.97;3189497;38;131151;-74
2021/08/20 00:13:46;;;;;;;4.85;3.20;;;15.90;77.80;;;19.56;61.59;101434.66;3190599;38;131748;-74
2021/08/20 00:16:52;;;;;;;2.55;0.93;;;15.90;77.80;;;19.55;61.26;101433.06;3188611;38;129895;-74
2021/08/20 00:19:59;;;;;;;1.17;1.08;;;15.90;77.80;;;19.43;61.83;101430.38;3188621;30;130348;-74
2021/08/20 00:23:07;;;;;;;3.97;2.35;;;16.00;77.90;;;19.37;61.54;101426.31;3188295;38;129811;-74
2021/08/20 00:26:16;;;;;;;5.35;2.33;;;15.90;77.80;;;19.30;61.83;101426.88;3187640;38;131028;-74
2021/08/20 00:29:22;;;;;;;0.65;0.65;;;15.90;77.80;;;19.40;61.97;101420.19;3189627;38;130860;-74
2021/08/20 00:32:28;;;;;;;3.17;1.50;;;15.90;77.90;;;19.35;61.65;101418.50;3188711;38;129773;-74
2021/08/20 00:35:33;;;;;;;2.08;0.80;;;15.90;77.80;;;19.34;61.94;101424.28;3188439;30;129788;-74
2021/08/20 00:38:40;;;;;;;0.63;0.63;;;15.90;77.80;;;19.35;61.71;101425.88;3188954;38;129888;-73
2021/08/20 00:41:49;;;;;;;1.90;1.38;;;15.90;77.90;;;19.38;61.60;101427.91;3190085;38;129884;-73
2021/08/20 00:44:56;;;;;;;1.52;1.42;;;15.90;77.90;;;19.37;61.79;101429.03;3188085;38;130055;-73
2021/08/20 00:48:02;;;;;;;4.97;2.38;;;15.90;77.80;;;19.37;61.67;101431.75;3190656;30;129819;-73
2021/08/20 00:51:17;;;;;;;5.63;2.28;;;15.90;77.80;;;19.31;61.94;101420.31;3188105;38;132813;-74
2021/08/20 00:54:23;;;;;;;0.98;0.88;;;15.80;77.80;;;19.28;61.82;101422.94;3189469;38;129661;-73
2021/08/20 00:57:32;;;;;;;6.43;1.88;;;15.80;77.70;;;19.26;61.98;101420.56;3189665;30;130841;-73
2021/08/20 01:00:41;;;;;;;3.30;0.80;;;15.80;77.80;;;19.22;62.03;101416.94;3189763;30;129857;-73
2021/08/20 01:03:50;;;;;;;2.78;1.63;;;15.80;77.80;;;19.25;61.83;101415.47;3190106;30;130285;-74
2021/08/20 01:06:58;;;;;;;3.95;2.15;;;15.80;77.90;;;19.28;61.77;101425.66;3189875;38;129783;-73
2021/08/20 01:10:10;;;;;;;1.88;1.17;;;15.80;77.90;;;19.23;61.71;101420.47;3189361;38;130428;-73
2021/08/20 01:13:18;;;;;;;7.10;2.38;;;15.80;77.90;;;19.26;61.83;101426.00;3191429;30;130241;-73
2021/08/20 01:16:25;;;;;;;1.13;1.05;;;15.80;77.90;;;19.29;61.82;101429.97;3188149;38;130617;-73
2021/08/20 01:19:34;;;;;;;1.27;1.17;;;15.80;77.90;;;19.26;61.90;101423.28;3190695;38;130258;-73
2021/08/20 01:22:41;;;;;;;1.48;1.38;;;15.80;77.90;;;19.23;62.00;101418.53;3188112;30;131009;-73
2021/08/20 01:25:52;;;;;;;0.82;0.82;;;15.80;77.90;;;19.19;61.77;101417.63;3189146;38;130122;-73
2021/08/20 01:29:01;;;;;;;1.33;1.13;;;15.70;77.80;;;19.17;61.68;101421.81;3189838;30;129976;-73
2021/08/20 01:32:10;;;;;;;1.42;1.33;;;15.70;77.90;;;19.13;61.82;101421.69;3188393;30;131382;-73
2021/08/20 01:35:21;;;;;;;0.93;0.93;;;15.70;77.90;;;18.99;62.22;101418.53;3190591;38;130717;-73
2021/08/20 01:38:28;;;;;;;1.15;1.15;;;15.60;77.80;;;18.95;62.07;101422.28;3189433;38;130779;-73
2021/08/20 01:41:38;;;;;;;11.70;1.90;;;15.50;77.90;;;18.85;62.47;101414.56;3187939;30;130141;-73
2021/08/20 01:44:44;;;;;;;1.33;1.23;;;15.50;77.90;;;18.80;62.51;101414.78;3189045;38;130648;-73
2021/08/20 01:47:50;;;;;;;0.50;0.50;;;15.40;77.90;;;18.78;62.23;101414.34;3189057;38;130054;-73
2021/08/20 01:50:56;;;;;;;0.55;0.45;;;15.40;78.00;;;18.76;62.28;101413.09;3189149;38;129942;-73
2021/08/20 01:54:05;;;;;;;2.75;2.45;;;15.30;78.00;;;18.64;62.55;101407.66;3189052;30;130697;-73
2021/08/20 01:57:14;;;;;;;1.95;0.93;;;15.30;78.00;;;18.58;62.49;101412.53;3185646;30;129889;-73
2021/08/20 02:00:22;;;;;;;8.32;0.75;;;15.30;78.10;;;18.52;62.66;101415.81;3188598;38;129770;-73
2021/08/20 02:03:27;;;;;;;0.90;0.82;;;15.20;78.10;;;18.46;62.93;101417.94;3188985;30;130122;-73
2021/08/20 02:06:34;;;;;;;5.18;1.48;;;15.20;78.20;;;18.46;62.86;101417.94;3189940;38;131720;-73
2021/08/20 02:09:41;;;;;;;0.35;0.35;;;15.20;78.20;;;18.44;62.69;101416.69;3188387;38;130016;-74
2021/08/20 02:12:51;;;;;;;0.98;0.90;;;15.10;78.30;;;18.37;62.81;101421.88;3188803;38;129679;-74
2021/08/20 02:16:04;;;;;;;0.73;0.73;;;15.10;78.30;;;18.37;62.81;101419.16;3188387;38;129778;-74
2021/08/20 02:19:11;;;;;;;0.30;0.30;;;15.00;78.30;;;18.34;62.67;101417.94;3187530;38;131519;-74
2021/08/20 02:22:17;;;;;;;0.73;0.70;;;15.00;78.30;;;18.26;62.81;101432.38;3187275;38;130236;-74
2021/08/20 02:25:27;;;;;;;0.80;0.80;;;15.00;78.40;;;18.22;63.04;101428.72;3189043;30;130246;-73
2021/08/20 02:28:36;;;;;;;3.35;0.90;;;14.90;78.30;;;18.15;63.18;101428.47;3190401;30;130272;-74
2021/08/20 02:31:42;;;;;;;3.70;1.08;;;14.90;78.30;;;18.08;63.28;101428.25;3187824;38;131769;-73
2021/08/20 02:34:51;;;;;;;0.65;0.65;;;14.80;78.30;;;17.99;63.11;101435.66;3188875;38;131004;-73
2021/08/20 02:37:58;;;;;;;0.40;0.40;;;14.80;78.30;;;17.95;63.26;101437.44;3188100;38;130252;-73
2021/08/20 02:41:07;;;;;;;0.43;0.43;;;14.70;78.40;;;17.94;63.29;101435.84;3187287;38;133696;-73
2021/08/20 02:44:22;;;;;;;1.67;0.75;;;14.70;78.40;;;17.87;63.21;101443.75;3188810;30;130005;-73
2021/08/20 02:47:29;;;;;;;3.08;2.78;;;14.70;78.50;;;17.82;62.93;101435.81;3189332;30;132747;-74
2021/08/20 02:50:35;;;;;;;1.60;0.90;;;14.60;78.40;;;17.75;63.40;101435.56;3190304;38;130323;-73
2021/08/20 02:53:42;;;;;;;4.57;1.67;;;14.50;78.50;;;17.71;63.12;101433.84;3190694;30;129387;-73
2021/08/20 02:56:48;;;;;;;1.05;1.00;;;14.50;78.50;;;17.64;63.43;101428.94;3187942;38;129823;-75
2021/08/20 03:00:00;;;;;;;2.92;1.73;;;14.40;78.60;;;17.61;63.45;101420.72;3187283;38;129836;-73
2021/08/20 03:03:11;;;;;;;23.98;0.93;;;14.40;78.60;;;17.58;63.34;101422.16;3188167;38;131020;-74
2021/08/20 03:06:17;;;;;;;0.75;0.75;;;14.30;78.50;;;17.48;63.20;101417.13;3188887;30;131326;-74
2021/08/20 03:09:31;;;;;;;0.50;0.40;;;14.30;78.60;;;17.45;63.46;101415.09;3188393;38;130819;-73
2021/08/20 03:12:37;;;;;;;8.40;1.17;;;14.20;78.60;;;17.34;63.44;101411.16;3189421;30;130954;-73
2021/08/20 03:15:47;;;;;;;1.55;1.40;;;14.10;78.60;;;17.30;63.67;101418.34;3187660;38;130272;-73
2021/08/20 03:18:53;;;;;;;2.72;2.50;;;14.10;78.70;;;17.33;63.46;101417.72;3188383;38;129699;-73
2021/08/20 03:22:02;;;;;;;0.30;0.30;;;14.10;78.80;;;17.33;63.25;101423.13;3188124;38;131057;-73
2021/08/20 03:25:18;;;;;;;8.52;1.45;;;14.00;78.80;;;17.27;63.45;101421.72;3189339;38;132245;-73
2021/08/20 03:28:33;;;;;;;0.55;0.55;;;14.00;78.70;;;17.22;63.51;101421.09;3188778;38;130751;-73
2021/08/20 03:31:50;;;;;;;1.73;1.08;;;13.90;78.70;;;17.21;63.38;101418.75;3189681;30;131138;-73
2021/08/20 03:35:14;;;;;;;1.88;1.60;;;13.90;78.80;;;17.16;63.24;101411.59;3189340;30;130355;-73
2021/08/20 03:38:33;;;;;;;5.28;1.75;;;13.80;78.70;;;17.08;63.18;101415.16;3188950;38;129714;-73
2021/08/20 03:41:48;;;;;;;3.17;1.30;;;13.80;78.70;;;17.04;63.30;101416.13;3188157;38;130760;-73
2021/08/20 03:45:11;;;;;;;8.30;1.48;;;13.80;78.80;;;17.04;63.24;101421.53;3188481;38;130157;-73
2021/08/20 03:48:30;;;;;;;2.35;2.17;;;13.80;78.90;;;17.09;63.07;101427.56;3190393;30;129858;-73
2021/08/20 03:51:46;;;;;;;2.60;1.80;;;13.70;78.90;;;17.17;62.90;101429.44;3190637;38;130999;-73
2021/08/20 03:55:12;;;;;;;3.05;2.78;;;13.80;79.00;;;17.23;63.01;101422.69;3197460;38;129776;-73
2021/08/20 03:58:45;;;;;;;8.80;1.63;;;13.80;78.90;;;17.36;62.71;101435.25;3197995;38;129710;-73
2021/08/20 04:02:08;;;;;;;5.28;2.20;;;13.80;78.90;;;17.41;62.63;101440.47;3190047;30;131563;-73
2021/08/20 04:05:28;;;;;;;2.42;1.42;;;13.90;78.90;;;17.44;62.54;101437.91;3189700;38;132482;-73
2021/08/20 04:09:10;;;;;;;0.75;0.55;;;13.90;78.80;;;17.50;62.42;101433.06;3191130;30;130752;-73
2021/08/20 04:12:32;;;;;;;0.30;0.30;;;13.90;78.80;;;17.59;62.18;101445.41;3190089;30;130683;-73
2021/08/20 04:15:56;;;;;;;5.55;2.08;;;14.00;78.80;;;17.64;62.28;101449.84;3191140;30;130708;-74
2021/08/20 04:19:10;;;;;;;2.15;1.45;;;14.10;78.80;;;17.69;61.99;101449.66;3189266;30;131275;-73
2021/08/20 04:22:28;;;;;;;0.40;0.40;;;14.10;78.70;;;17.74;61.88;101452.97;3191499;30;132965;-73
2021/08/20 04:25:43;;;;;;;3.17;2.88;;;14.20;78.60;;;17.79;61.94;101452.75;3186983;38;130922;-74
2021/08/20 04:29:18;;;;;;;0.45;0.45;;;14.20;78.50;;;17.80;62.14;101442.69;3188383;38;129860;-73
2021/08/20 04:32:55;;;;;;;4.25;1.67;;;14.20;78.50;;;17.78;62.02;101448.47;3190035;38;130282;-74
2021/08/20 04:36:39;;;;;;;2.67;1.67;;;14.30;78.50;;;17.82;62.15;101440.44;3188347;38;131268;-73
2021/08/20 04:40:31;;;;;;;1.55;1.45;;;14.30;78.40;;;17.85;61.97;101451.41;3187658;30;130134;-73
2021/08/20 04:44:07;;;;;;;1.27;1.17;;;14.30;78.40;;;17.88;61.95;101458.88;3189412;30;130724;-73
2021/08/20 04:47:38;;;;;;;0.50;0.50;;;14.40;78.40;;;17.90;61.94;101458.56;3189843;30;129659;-73
2021/08/20 04:51:10;;;;;;;0.70;0.50;;;14.40;78.40;;;17.95;61.92;101456.41;3187626;38;131332;-73
2021/08/20 04:54:31;;;;;;;0.63;0.63;;;14.40;78.20;;;17.97;62.03;101470.44;3188886;38;129773;-73
2021/08/20 04:57:49;;;;;;;0.70;0.70;;;14.50;78.20;;;17.99;62.04;101464.69;3188472;38;131086;-75
2021/08/20 05:01:05;;;;;;;0.52;0.52;;;14.50;78.10;;;17.99;62.31;101473.63;3190435;38;131730;-73
2021/08/20 05:04:20;;;;;;;1.50;1.20;;;14.60;78.20;;;18.00;62.43;101469.78;3190003;30;131166;-73
2021/08/20 05:07:36;;;;;;;;;;;14.60;78.20;;;18.04;61.99;101476.16;3189588;31;131011;-74
2021/08/20 05:10:51;;;;;;;2.88;0.70;;;14.60;78.30;;;18.13;61.90;101481.47;3189783;38;129841;-73
2021/08/20 05:14:09;;;;;;;1.10;1.10;;;14.60;78.20;;;18.20;61.96;101476.31;3188353;38;130794;-73
2021/08/20 05:17:24;;;;;;;0.57;0.57;;;14.70;78.20;;;18.28;61.89;101475.47;3190406;30;129718;-74
2021/08/20 05:20:38;;;;;;;0.28;0.28;;;14.80;78.20;;;18.37;61.82;101479.69;3188893;30;131204;-73
2021/08/20 05:23:53;;;;;;;0.93;0.90;;;14.80;78.10;;;18.44;61.70;101471.78;3189260;30;130550;-74
2021/08/20 05:27:07;;;;;;;;;;;14.90;78.00;;;18.56;61.44;101481.88;3188845;38;130760;-74
2021/08/20 05:30:25;;;;;;;0.85;0.85;;;14.90;78.00;;;18.64;61.25;101473.63;3189255;38;130289;-74
2021/08/20 05:33:42;;;;;;;0.63;0.63;;;15.00;77.90;;;18.72;61.30;101480.88;3188224;38;129770;-74
2021/08/20 05:36:48;;;;;;;1.38;0.73;;;15.10;77.90;;;18.82;61.00;101485.84;3187715;38;129774;-74
2021/08/20 05:40:02;;;;;;;;;;;15.20;77.80;;;18.84;61.22;101489.00;3188727;38;131204;-74
2021/08/20 05:43:19;;;;;;;1.67;1.10;;;15.20;77.90;;;18.89;61.23;101479.88;3188918;38;130928;-74
2021/08/20 05:46:35;;;;;;;2.95;0.90;;;15.30;77.80;;;18.97;61.23;101479.75;3191107;30;131045;-74
2021/08/20 05:49:50;;;;;;;3.70;1.50;;;15.30;77.60;;;19.03;61.12;101475.69;3191183;30;129721;-74
2021/08/20 05:53:07;;;;;;;0.28;0.28;;;15.40;77.70;;;19.12;60.93;101473.63;3190564;30;129722;-74
2021/08/20 05:56:21;;;;;;;1.00;0.95;;;15.40;77.60;;;19.31;60.77;101476.59;3187927;38;130146;-74
2021/08/20 05:59:35;;;;;;;1.90;1.42;;;15.50;77.40;;;19.46;60.55;101473.16;3189624;38;130854;-74
2021/08/20 06:02:55;;;;;;;0.30;0.30;;;15.70;77.30;;;19.72;59.84;101490.69;3188928;38;130704;-74
2021/08/20 06:06:16;;;;;;;1.48;0.88;;;15.90;77.30;;;20.07;59.17;101488.19;3187090;38;130916;-74
2021/08/20 06:09:31;;;;;;;2.83;1.65;;;16.00;77.00;;;20.60;58.17;101504.84;3186339;38;130637;-74
2021/08/20 06:12:46;;;;;;;3.72;1.75;;;16.30;76.70;;;20.83;57.67;101501.19;3189819;38;130717;-74
2021/08/20 06:16:00;;;;;;;2.53;1.80;;;16.60;76.20;;;20.70;58.58;101502.38;3187899;38;131338;-74
2021/08/20 06:19:19;;;;;;;2.90;0.77;;;16.70;76.20;;;20.61;59.17;101500.97;3189236;38;129973;-74
2021/08/20 06:22:34;;;;;;;1.90;1.80;;;16.70;76.30;;;20.51;59.34;101506.91;3189025;30;130301;-74
2021/08/20 06:25:49;;;;;;;5.20;1.67;;;16.70;76.40;;;20.46;59.45;101503.69;3190349;30;131469;-74
2021/08/20 06:29:05;;;;;;;0.80;0.68;;;16.70;76.60;;;20.75;59.08;101507.59;3188920;31;129801;-74
2021/08/20 06:32:19;;;;;;;0.40;0.40;;;16.80;76.50;;;21.17;58.21;101500.47;3189693;30;129664;-74
2021/08/20 06:35:36;;;;;;;2.15;1.40;;;17.00;76.40;;;21.37;58.12;101506.75;3189433;38;130868;-74
2021/08/20 06:38:51;;;;;;;1.17;1.08;;;17.20;76.20;;;21.68;57.35;101506.72;3190229;38;129753;-74
2021/08/20 06:42:08;;;;;;;3.75;2.90;;;17.40;76.10;;;21.87;57.59;101501.28;3188521;38;129865;-74
2021/08/20 06:45:22;;;;;;;1.52;1.42;;;17.60;76.50;;;22.42;56.28;101501.63;3189853;38;130053;-74
2021/08/20 06:48:37;;;;;;;7.55;1.88;;;17.90;75.40;;;22.89;55.68;101493.88;3187498;38;130306;-74
2021/08/20 06:51:54;;;;;;;5.85;2.53;;;18.30;74.90;;;22.81;56.17;101486.72;3189178;38;130711;-74
2021/08/20 06:55:10;;;;;;;3.65;1.92;;;18.50;74.70;;;22.60;57.28;101491.81;3188580;38;130780;-74
2021/08/20 06:58:24;;;;;;;1.33;1.23;;;18.60;74.80;;;22.22;58.43;101494.59;3187688;38;131243;-74
2021/08/20 07:01:38;;;;;;;3.10;1.50;;;18.50;74.90;;;22.01;58.96;101507.03;3189642;38;129764;-74
2021/08/20 07:04:53;;;;;;;2.67;2.10;;;18.40;75.30;;;21.97;58.91;101496.06;3188968;38;130213;-74
2021/08/20 07:08:11;;;;;;;2.90;1.88;;;18.30;75.50;;;21.79;59.64;101511.25;3187443;38;131320;-74
2021/08/20 07:11:27;;;;;;;4.65;1.95;;;18.20;75.80;;;21.68;59.92;101512.16;3190565;38;129869;-74
2021/08/20 07:14:42;;;;;;;3.90;2.58;;;18.10;76.00;;;21.50;60.06;101528.13;3188201;38;131553;-74
2021/08/20 07:17:56;;;;;;;;;;;18.00;76.30;;;21.47;60.38;101526.09;3190316;30;129971;-74
2021/08/20 07:21:11;;;;;;;0.63;0.63;;;17.90;76.60;;;21.49;60.47;101534.72;3189187;30;131260;-74
2021/08/20 07:24:28;;;;;;;2.22;2.00;;;17.80;76.60;;;21.31;60.90;101538.94;3187818;38;131035;-74
2021/08/20 07:27:42;;;;;;;1.35;1.08;;;17.80;76.80;;;21.23;61.16;101536.44;3188507;38;130705;-74
2021/08/20 07:30:57;;;;;;;1.55;1.42;;;17.80;77.00;;;21.20;60.99;101537.16;3188433;30;130086;-74
2021/08/20 07:34:11;;;;;;;0.98;0.98;;;17.70;77.20;;;21.28;60.88;101541.63;3188609;38;129853;-74
2021/08/20 07:37:25;;;;;;;;;;;17.70;77.10;;;21.49;60.21;101533.94;3188933;38;129690;-74
2021/08/20 07:40:43;;;;;;;2.70;1.33;;;17.70;77.10;;;21.77;59.73;101529.94;3188353;38;130314;-74
2021/08/20 07:43:57;;;;;;;24.80;1.98;;;17.90;76.80;;;21.95;59.27;101536.56;3187865;30;130717;-74
2021/08/20 07:47:12;;;;;;;2.10;1.35;;;18.00;76.60;;;21.98;59.48;101530.38;3187782;38;130874;-74
2021/08/20 07:50:26;;;;;;;1.25;1.00;;;18.10;76.50;;;21.90;59.85;101539.53;3187659;38;131255;-74
2021/08/20 07:53:41;;;;;;;2.63;1.63;;;18.10;76.50;;;21.77;60.08;101532.66;3189215;30;131022;-74
2021/08/20 07:56:57;;;;;;;0.70;0.47;;;18.10;76.50;;;21.65;60.27;101530.06;3187724;38;130755;-74
2021/08/20 08:00:20;;;;;;;0.88;0.82;;;18.10;76.70;;;21.93;59.90;101540.78;3187781;30;130959;-74
2021/08/20 08:03:34;;;;;;;3.33;1.70;;;18.10;76.70;;;21.95;59.88;101543.94;3187219;38;129898;-77
2021/08/20 08:06:49;;;;;;;1.38;0.75;;;18.10;76.60;;;22.31;59.23;101556.00;3188381;30;132729;-74
2021/08/20 08:10:03;;;;;;;;;;;18.30;76.60;;;22.39;59.12;101541.41;3187953;30;130859;-74
2021/08/20 08:13:20;;;;;;;2.08;1.13;;;18.50;76.50;;;22.68;58.82;101539.97;3188360;38;130122;-73
2021/08/20 08:16:38;;;;;;;1.55;1.05;;;18.60;76.40;;;23.56;56.55;101537.53;3187305;38;130780;-73
2021/08/20 08:19:53;;;;;;;0.98;0.98;;;18.90;75.90;;;25.66;52.01;101529.59;3186023;38;130170;-74
2021/08/20 08:23:09;;;;;;;5.22;1.63;;;19.70;74.90;;;28.16;47.40;101541.25;3187596;30;131499;-74
2021/08/20 08:26:23;;;;;;;3.88;2.63;;;20.90;73.70;;;26.78;51.90;101539.06;3188766;38;129829;-73
2021/08/20 08:29:40;;;;;;;;;;;21.50;72.90;;;26.10;54.10;101539.25;3187204;38;130235;-75
2021/08/20 08:32:55;;;;;;;12.55;2.05;;;21.50;73.20;;;25.25;56.65;101552.06;3187034;38;130889;-74
2021/08/20 08:36:12;;;;;;;5.50;2.50;;;21.30;73.80;;;25.42;56.49;101540.44;3186998;38;130915;-74
2021/08/20 08:39:26;;;;;;;0.60;0.60;;;21.20;74.20;;;28.26;49.92;101555.00;3187859;38;130896;-74
2021/08/20 08:42:40;;;;;;;;;;;21.80;74.00;;;29.06;49.02;101556.50;3186593;38;130494;-74
2021/08/20 08:45:59;;;;;;;2.63;1.48;;;22.60;73.80;;;29.62;48.70;101547.72;3187363;30;133995;-74
2021/08/20 08:49:22;;;;;;;5.63;2.65;;;23.20;72.40;;;27.74;53.87;101553.22;3186650;38;132027;-75
2021/08/20 08:52:38;;;;;;;5.15;1.30;;;23.30;72.40;;;26.49;57.09;101561.41;3185657;38;131691;-74
2021/08/20 08:55:53;;;;;;;4.07;1.70;;;22.80;73.10;;;25.52;59.17;101565.22;3186227;38;131068;-75
2021/08/20 08:59:09;;;;;;;2.67;2.20;;;22.30;73.80;;;25.33;59.48;101572.88;3186939;38;130695;-75
2021/08/20 09:02:28;;;;;;;;;;;21.90;74.60;;;25.09;59.47;101567.97;3187350;38;130439;-72
2021/08/20 09:05:48;;;;;;;2.65;2.45;;;21.70;75.40;;;25.00;59.46;101570.22;3185064;38;131289;-74
2021/08/20 09:09:08;;;;;;;2.90;1.77;;;21.50;75.00;;;24.67;60.13;101576.59;3188082;38;130780;-74
2021/08/20 09:12:29;;;;;;;4.82;2.22;;;21.30;75.40;;;24.38;60.68;101579.34;3188469;30;131458;-74
2021/08/20 09:15:45;;;;;;;2.05;1.70;;;21.00;76.30;;;24.18;60.92;101577.94;3187077;38;130762;-75
2021/08/20 09:19:17;;;;;;;1.55;0.98;;;20.80;76.00;;;23.94;61.10;101581.13;3187317;38;131480;-75
2021/08/20 09:22:36;;;;;;;13.77;3.33;;;20.60;76.10;;;23.66;61.58;101579.91;3186648;30;130865;-76
2021/08/20 09:25:53;;;;;;;2.30;1.88;;;20.40;76.30;;;23.60;61.49;101582.19;3185661;38;130086;-75
2021/08/20 09:29:14;;;;;;;4.78;1.90;;;20.20;76.50;;;23.56;61.36;101583.28;3186579;38;130831;-76
2021/08/20 09:32:29;;;;;;;6.35;2.60;;;20.10;76.60;;;23.45;61.44;101583.09;3186483;38;131821;-76
2021/08/20 09:35:46;;;;;;;2.85;1.95;;;20.10;76.70;;;23.46;61.05;101581.94;3184788;38;131241;-75
2021/08/20 09:39:00;;;;;;;8.13;1.95;;;20.00;76.80;;;23.56;60.85;101580.53;3187579;38;129938;-75
2021/08/20 09:42:17;;;;;;;1.38;1.05;;;20.00;76.90;;;23.72;60.67;101597.56;3185604;38;129963;-75
2021/08/20 09:45:32;;;;;;;3.15;2.10;;;20.00;76.80;;;24.27;59.19;101586.66;3187335;30;130256;-76
2021/08/20 09:48:57;;;;;;;2.80;2.45;;;20.20;76.60;;;24.73;58.09;101593.47;3188156;30;129684;-75
2021/08/20 09:52:08;;;;;;;2.05;1.83;;;20.50;76.20;;;25.33;56.97;101584.66;3185305;38;131403;-75
2021/08/20 09:55:45;;;;;;;1.05;1.05;;;20.80;75.80;;;26.16;55.61;101594.63;3183554;30;131480;-75
2021/08/20 09:59:07;;;;;;;3.70;2.35;;;21.30;75.10;;;28.22;51.16;101590.03;3191442;30;129866;-76
2021/08/20 10:02:27;;;;;;;2.42;1.92;;;22.10;74.40;;;29.81;49.43;101592.09;3191499;38;129246;-76
2021/08/20 10:05:43;;;;;;;3.90;2.78;;;23.10;73.90;;;30.54;49.30;101579.38;3187238;38;130333;-76
2021/08/20 10:09:05;;;;;;;17.23;1.40;;;24.10;73.60;;;30.69;50.47;101583.53;3186045;30;130942;-76
2021/08/20 10:12:22;;;;;;;4.88;1.25;;;24.70;73.30;;;31.73;49.82;101583.81;3186739;38;130655;-76
2021/08/20 10:15:36;;;;;;;4.18;2.67;;;25.40;73.10;;;32.33;50.01;101594.50;3186146;38;130645;-77
2021/08/20 10:18:44;;;;;;;5.35;1.98;;;26.30;73.00;;;32.70;50.46;101589.34;3186824;30;131694;-75
2021/08/20 10:21:51;;;;;;;2.58;2.08;;;26.90;72.60;;;32.92;50.91;101587.66;3187172;38;131171;-75
2021/08/20 10:25:02;;;;;;;2.22;1.05;;;27.40;72.30;;;33.30;50.60;101574.81;3185738;38;129829;-76
2021/08/20 10:28:16;;;;;;;5.70;0.82;;;27.90;72.00;;;33.51;51.28;101585.38;3185757;30;130721;-76
2021/08/20 10:31:24;;;;;;;0.98;0.90;;;28.20;72.00;;;33.65;51.02;101576.66;3182883;38;130820;-76
2021/08/20 10:34:40;;;;;;;7.78;1.40;;;28.40;71.70;;;34.19;49.94;101581.09;3184924;38;129890;-75
2021/08/20 10:37:46;;;;;;;1.73;0.98;;;28.70;71.40;;;34.58;49.92;101585.50;3185160;38;132540;-75
2021/08/20 10:41:21;;;;;;;1.42;1.20;;;29.10;71.30;;;34.86;50.42;101585.44;3186236;38;130718;-74
2021/08/20 10:44:43;;;;;;;2.13;1.48;;;29.60;71.00;;;33.86;52.54;101583.66;3186493;38;129876;-74
2021/08/20 10:48:18;;;;;;;1.75;1.17;;;29.40;71.30;;;32.43;55.48;101583.19;3186606;38;131243;-73
2021/08/20 10:52:06;;;;;;;2.08;1.23;;;28.90;71.50;;;30.65;58.93;101591.09;3186468;30;130990;-73
2021/08/20 10:55:27;;;;;;;5.55;1.75;;;28.00;72.20;;;29.87;60.13;101586.91;3186322;30;129998;-74
2021/08/20 10:58:47;;;;;;;7.13;1.30;;;27.20;73.40;;;29.70;59.91;101583.16;3188129;30;131221;-74
2021/08/20 11:02:43;;;;;;;1.58;1.30;;;26.60;73.90;;;29.46;59.73;101591.69;3186387;38;131132;-73
2021/08/20 11:05:52;;;;;;;2.95;0.90;;;26.30;74.10;;;29.01;60.47;101597.56;3184509;38;129988;-73
2021/08/20 11:09:36;;;;;;;1.70;1.60;;;25.90;74.40;;;28.93;60.10;101591.28;3184346;38;132349;-73
2021/08/20 11:13:03;;;;;;;1.10;0.98;;;25.60;74.60;;;29.02;59.64;101593.59;3185596;38;132731;-74
2021/08/20 11:16:40;;;;;;;3.17;1.15;;;25.50;74.70;;;29.66;58.14;101584.38;3188173;30;130801;-74
2021/08/20 11:19:59;;;;;;;0.75;0.75;;;25.50;74.60;;;30.46;56.25;101594.50;3185121;38;131200;-73
2021/08/20 11:23:23;;;;;;;2.28;1.58;;;25.80;74.30;;;30.83;55.03;101586.88;3189828;38;129595;-73
2021/08/20 11:26:38;;;;;;;1.17;0.88;;;26.20;73.80;;;31.05;55.21;101585.34;3188281;30;132156;-73
2021/08/20 11:29:52;;;;;;;1.02;0.65;;;26.50;73.10;;;30.60;55.96;101588.00;3187221;30;129738;-72
2021/08/20 11:33:22;;;;;;;1.17;1.10;;;26.60;72.80;;;30.26;57.06;101593.59;3186373;38;129790;-73
2021/08/20 11:36:28;;;;;;;3.88;1.33;;;26.40;72.90;;;30.19;57.11;101609.47;3186225;38;132391;-73
2021/08/20 11:39:34;;;;;;;0.77;0.77;;;26.40;73.10;;;30.19;56.79;101606.72;3184378;38;130149;-73
2021/08/20 11:42:39;;;;;;;2.10;1.88;;;26.30;73.10;;;30.46;56.50;101611.09;3185757;30;130788;-74
2021/08/20 11:45:46;;;;;;;1.17;0.45;;;26.40;73.00;;;30.79;55.28;101610.28;3186967;30;129860;-73
2021/08/20 11:48:57;;;;;;;0.55;0.52;;;26.50;72.70;;;31.22;54.07;101608.44;3186247;38;129978;-73
2021/08/20 11:52:07;;;;;;;2.78;0.93;;;26.70;72.50;;;31.60;54.13;101604.22;3186790;30;130649;-74
2021/08/20 11:55:19;;;;;;;0.30;0.30;;;27.00;72.10;;;31.51;53.83;101613.06;3187054;38;130755;-73
2021/08/20 11:58:30;;;;;;;0.75;0.30;;;27.00;71.90;;;31.42;54.66;101614.84;3182667;38;131435;-74
2021/08/20 12:01:38;;;;;;;1.58;1.48;;;27.00;72.00;;;31.54;54.56;101601.19;3186641;30;131363;-73
2021/08/20 12:05:16;;;;;;;1.35;0.80;;;27.10;72.20;;;31.61;54.48;101597.47;3188950;38;130068;-73
2021/08/20 12:08:22;;;;;;;0.68;0.68;;;27.10;72.70;;;31.81;53.90;101596.31;3186875;38;130772;-73
2021/08/20 12:11:32;;;;;;;0.93;0.75;;;27.20;72.40;;;32.17;53.69;101608.34;3188101;38;131447;-74
2021/08/20 12:14:38;;;;;;;0.10;0.10;;;27.40;72.50;;;32.33;53.83;101604.84;3187353;38;131620;-74
2021/08/20 12:18:25;;;;;;;1.95;1.45;;;27.50;72.40;;;32.77;53.05;101603.06;3188024;30;132619;-74
2021/08/20 12:21:35;;;;;;;0.68;0.68;;;27.90;72.20;;;32.34;54.31;101601.63;3188718;38;131551;-73
2021/08/20 12:24:48;;;;;;;1.85;0.65;;;28.00;71.60;;;31.91;55.41;101600.91;3191066;30;130252;-73
2021/08/20 12:27:55;;;;;;;0.80;0.65;;;27.90;71.90;;;31.43;56.31;101600.56;3186841;38;131894;-73
2021/08/20 12:31:08;;;;;;;2.65;1.60;;;27.70;71.80;;;31.45;55.70;101603.69;3188677;38;129901;-73
2021/08/20 12:34:15;;;;;;;0.40;0.40;;;27.50;72.10;;;31.61;55.61;101598.28;3191153;30;130166;-73
2021/08/20 12:37:23;;;;;;;0.28;0.28;;;27.60;72.30;;;31.69;55.31;101599.72;3188188;38;133174;-73
2021/08/20 12:40:45;;;;;;;0.68;0.68;;;27.60;72.20;;;31.78;55.14;101594.41;3189247;30;130748;-72
2021/08/20 12:43:53;;;;;;;0.73;0.70;;;27.70;72.20;;;31.98;55.18;101606.31;3189317;38;129873;-72
2021/08/20 12:47:10;;;;;;;0.77;0.47;;;27.80;72.50;;;32.04;55.32;101599.03;3189901;38;130847;-72
2021/08/20 12:50:21;;;;;;;1.63;1.25;;;28.00;72.40;;;31.98;55.72;101600.75;3188439;30;130502;-73
2021/08/20 12:53:32;;;;;;;3.30;0.73;;;28.00;72.40;;;31.60;56.81;101602.25;3189432;38;129651;-73
2021/08/20 12:56:43;;;;;;;2.47;0.70;;;27.90;72.20;;;32.22;55.47;101595.94;3188128;30;130804;-73
2021/08/20 12:59:49;;;;;;;0.55;0.55;;;28.00;72.30;;;32.60;54.87;101595.09;3189186;38;131326;-72
2021/08/20 13:02:57;;;;;;;0.65;0.65;;;28.30;72.20;;;32.72;54.54;101591.69;3188098;38;130801;-72
2021/08/20 13:06:15;;;;;;;0.10;0.10;;;28.50;71.80;;;32.53;55.16;101586.94;3189835;38;129848;-73
2021/08/20 13:09:24;;;;;;;0.20;0.20;;;28.50;71.80;;;32.44;55.10;101583.97;3188132;38;130044;-73
2021/08/20 13:12:30;;;;;;;1.55;1.15;;;28.60;71.40;;;32.10;56.13;101589.00;3189805;30;129951;-72
2021/08/20 13:15:36;;;;;;;0.57;0.57;;;28.50;71.50;;;32.26;56.17;101597.44;3188108;38;130142;-73
2021/08/20 13:18:42;;;;;;;1.70;1.58;;;28.50;72.30;;;32.01;56.52;101588.81;3189176;38;130171;-72
2021/08/20 13:21:48;;;;;;;1.85;0.82;;;28.50;71.60;;;31.34;57.33;101589.25;3187924;38;129766;-72
2021/08/20 13:24:56;;;;;;;3.35;2.88;;;28.20;71.70;;;30.89;58.77;101589.97;3188009;38;130637;-72